Terminal Aerodrome Forecast
Issued by NWS

Home | Current Version | Previous Version | Text Only | Print | Product List | Glossary On
Versions: 1 2 3 4 5 6 7 8 9 10 11 12 13 14 15 16 17
000
FTUS43 KBIS 181700
TAFDIK
TAF
KDIK 181724Z 1818/1918 20008KT P6SM SKC
     FM182100 24013KT P6SM BKN080
     FM182300 35024G34KT 5SM -SHRA BKN060
     FM190400 34018G29KT P6SM BKN070
     FM191400 32022G33KT P6SM BKN040=

USA.gov is the U.S. government's official web portal to all federal, state and local government web resources and services.